sensor_id;sensor_type;location;lat;lon;timestamp;P1;durP1;ratioP1;P2;durP2;ratioP2
22363;SDS011;11349;53.412;-1.328;2022-10-15T00:00:46;17.23;;;11.13;;
22363;SDS011;11349;53.412;-1.328;2022-10-15T00:03:15;15.10;;;11.13;;
22363;SDS011;11349;53.412;-1.328;2022-10-15T00:05:40;18.98;;;13.32;;
22363;SDS011;11349;53.412;-1.328;2022-10-15T00:08:07;17.70;;;12.13;;
22363;SDS011;11349;53.412;-1.328;2022-10-15T00:10:34;19.17;;;12.27;;
22363;SDS011;11349;53.412;-1.328;2022-10-15T00:13:00;16.90;;;13.07;;
22363;SDS011;11349;53.412;-1.328;2022-10-15T00:15:26;16.63;;;12.25;;
22363;SDS011;11349;53.412;-1.328;2022-10-15T00:17:52;18.15;;;13.88;;
22363;SDS011;11349;53.412;-1.328;2022-10-15T00:20:18;24.20;;;15.55;;
22363;SDS011;11349;53.412;-1.328;2022-10-15T00:22:47;17.95;;;13.05;;
22363;SDS011;11349;53.412;-1.328;2022-10-15T00:25:12;16.17;;;12.15;;
22363;SDS011;11349;53.412;-1.328;2022-10-15T00:27:38;19.23;;;12.57;;
22363;SDS011;11349;53.412;-1.328;2022-10-15T00:30:04;19.50;;;13.70;;
22363;SDS011;11349;53.412;-1.328;2022-10-15T00:32:31;19.10;;;13.40;;
22363;SDS011;11349;53.412;-1.328;2022-10-15T00:34:57;17.67;;;13.52;;
22363;SDS011;11349;53.412;-1.328;2022-10-15T00:37:23;21.90;;;13.75;;
22363;SDS011;11349;53.412;-1.328;2022-10-15T00:39:48;22.33;;;15.43;;
22363;SDS011;11349;53.412;-1.328;2022-10-15T00:42:15;21.15;;;15.45;;
22363;SDS011;11349;53.412;-1.328;2022-10-15T00:47:36;22.85;;;15.77;;
22363;SDS011;11349;53.412;-1.328;2022-10-15T00:50:10;21.27;;;15.05;;
22363;SDS011;11349;53.412;-1.328;2022-10-15T00:55:15;22.90;;;16.30;;
22363;SDS011;11349;53.412;-1.328;2022-10-15T00:57:46;19.67;;;13.32;;
22363;SDS011;11349;53.412;-1.328;2022-10-15T01:00:14;19.48;;;15.00;;
22363;SDS011;11349;53.412;-1.328;2022-10-15T01:02:41;19.80;;;13.13;;
22363;SDS011;11349;53.412;-1.328;2022-10-15T01:05:08;20.70;;;13.77;;
22363;SDS011;11349;53.412;-1.328;2022-10-15T01:07:34;18.05;;;13.38;;
22363;SDS011;11349;53.412;-1.328;2022-10-15T01:10:00;19.65;;;12.80;;
22363;SDS011;11349;53.412;-1.328;2022-10-15T01:12:47;18.02;;;12.40;;
22363;SDS011;11349;53.412;-1.328;2022-10-15T01:15:25;16.17;;;12.32;;
22363;SDS011;11349;53.412;-1.328;2022-10-15T01:18:02;17.30;;;11.88;;
22363;SDS011;11349;53.412;-1.328;2022-10-15T01:20:50;17.35;;;12.25;;
22363;SDS011;11349;53.412;-1.328;2022-10-15T01:32:15;18.35;;;12.32;;
22363;SDS011;11349;53.412;-1.328;2022-10-15T01:35:02;16.20;;;12.40;;
22363;SDS011;11349;53.412;-1.328;2022-10-15T01:40:26;15.63;;;11.80;;
22363;SDS011;11349;53.412;-1.328;2022-10-15T01:43:27;18.95;;;14.18;;
22363;SDS011;11349;53.412;-1.328;2022-10-15T01:46:01;19.45;;;12.85;;
22363;SDS011;11349;53.412;-1.328;2022-10-15T01:48:30;20.98;;;14.48;;
22363;SDS011;11349;53.412;-1.328;2022-10-15T01:51:01;18.90;;;13.88;;
22363;SDS011;11349;53.412;-1.328;2022-10-15T01:53:30;19.85;;;15.23;;
22363;SDS011;11349;53.412;-1.328;2022-10-15T01:56:03;20.00;;;13.40;;
22363;SDS011;11349;53.412;-1.328;2022-10-15T01:58:39;21.08;;;14.55;;
22363;SDS011;11349;53.412;-1.328;2022-10-15T02:01:07;21.77;;;14.93;;
22363;SDS011;11349;53.412;-1.328;2022-10-15T02:04:34;22.42;;;15.60;;
22363;SDS011;11349;53.412;-1.328;2022-10-15T02:06:41;21.17;;;16.17;;
22363;SDS011;11349;53.412;-1.328;2022-10-15T02:09:18;25.15;;;17.95;;
22363;SDS011;11349;53.412;-1.328;2022-10-15T02:15:04;24.63;;;17.05;;
22363;SDS011;11349;53.412;-1.328;2022-10-15T02:17:41;27.13;;;17.90;;
22363;SDS011;11349;53.412;-1.328;2022-10-15T02:20:28;28.67;;;19.42;;
22363;SDS011;11349;53.412;-1.328;2022-10-15T02:23:12;27.52;;;18.13;;
22363;SDS011;11349;53.412;-1.328;2022-10-15T02:25:45;27.15;;;18.55;;
22363;SDS011;11349;53.412;-1.328;2022-10-15T02:28:14;31.35;;;19.08;;
22363;SDS011;11349;53.412;-1.328;2022-10-15T02:30:42;29.45;;;19.50;;
22363;SDS011;11349;53.412;-1.328;2022-10-15T02:33:12;27.42;;;19.00;;
22363;SDS011;11349;53.412;-1.328;2022-10-15T02:35:41;29.73;;;19.25;;
22363;SDS011;11349;53.412;-1.328;2022-10-15T02:38:09;28.30;;;18.58;;
22363;SDS011;11349;53.412;-1.328;2022-10-15T02:40:38;29.00;;;19.17;;
22363;SDS011;11349;53.412;-1.328;2022-10-15T02:43:07;28.00;;;18.65;;
22363;SDS011;11349;53.412;-1.328;2022-10-15T02:45:35;32.63;;;18.73;;
22363;SDS011;11349;53.412;-1.328;2022-10-15T02:48:01;30.23;;;19.75;;
22363;SDS011;11349;53.412;-1.328;2022-10-15T02:50:27;31.23;;;20.23;;
22363;SDS011;11349;53.412;-1.328;2022-10-15T02:52:53;31.95;;;18.77;;
22363;SDS011;11349;53.412;-1.328;2022-10-15T02:55:18;32.78;;;17.85;;
22363;SDS011;11349;53.412;-1.328;2022-10-15T02:57:44;27.05;;;16.50;;
22363;SDS011;11349;53.412;-1.328;2022-10-15T03:00:10;26.90;;;16.77;;
22363;SDS011;11349;53.412;-1.328;2022-10-15T03:02:36;31.17;;;17.55;;
22363;SDS011;11349;53.412;-1.328;2022-10-15T03:05:02;26.17;;;17.17;;
22363;SDS011;11349;53.412;-1.328;2022-10-15T03:07:28;29.35;;;17.40;;
22363;SDS011;11349;53.412;-1.328;2022-10-15T03:09:53;27.90;;;17.52;;
22363;SDS011;11349;53.412;-1.328;2022-10-15T03:12:19;23.83;;;16.42;;
22363;SDS011;11349;53.412;-1.328;2022-10-15T03:14:47;23.92;;;15.65;;
22363;SDS011;11349;53.412;-1.328;2022-10-15T03:17:13;24.60;;;14.77;;
22363;SDS011;11349;53.412;-1.328;2022-10-15T03:19:39;20.63;;;13.10;;
22363;SDS011;11349;53.412;-1.328;2022-10-15T03:22:05;21.65;;;14.20;;
22363;SDS011;11349;53.412;-1.328;2022-10-15T03:24:31;23.63;;;13.82;;
22363;SDS011;11349;53.412;-1.328;2022-10-15T03:26:57;21.75;;;13.80;;
22363;SDS011;11349;53.412;-1.328;2022-10-15T03:29:22;20.48;;;13.70;;
22363;SDS011;11349;53.412;-1.328;2022-10-15T03:31:48;19.15;;;12.70;;
22363;SDS011;11349;53.412;-1.328;2022-10-15T03:34:14;19.10;;;12.48;;
22363;SDS011;11349;53.412;-1.328;2022-10-15T03:36:40;17.30;;;12.07;;
22363;SDS011;11349;53.412;-1.328;2022-10-15T03:39:06;14.02;;;10.18;;
22363;SDS011;11349;53.412;-1.328;2022-10-15T03:41:32;17.42;;;9.98;;
22363;SDS011;11349;53.412;-1.328;2022-10-15T03:44:01;11.82;;;8.63;;
22363;SDS011;11349;53.412;-1.328;2022-10-15T03:46:28;11.40;;;8.90;;
22363;SDS011;11349;53.412;-1.328;2022-10-15T03:48:54;10.18;;;7.53;;
22363;SDS011;11349;53.412;-1.328;2022-10-15T03:51:20;10.68;;;7.70;;
22363;SDS011;11349;53.412;-1.328;2022-10-15T03:53:46;9.57;;;7.03;;
22363;SDS011;11349;53.412;-1.328;2022-10-15T03:56:11;9.00;;;6.72;;
22363;SDS011;11349;53.412;-1.328;2022-10-15T03:58:37;8.98;;;6.28;;
22363;SDS011;11349;53.412;-1.328;2022-10-15T04:01:10;10.15;;;7.18;;
22363;SDS011;11349;53.412;-1.328;2022-10-15T04:03:37;12.02;;;7.20;;
22363;SDS011;11349;53.412;-1.328;2022-10-15T04:06:03;9.68;;;6.60;;
22363;SDS011;11349;53.412;-1.328;2022-10-15T04:08:29;10.70;;;7.00;;
22363;SDS011;11349;53.412;-1.328;2022-10-15T04:10:55;8.38;;;6.38;;
22363;SDS011;11349;53.412;-1.328;2022-10-15T04:13:21;10.82;;;6.55;;
22363;SDS011;11349;53.412;-1.328;2022-10-15T04:15:47;8.57;;;5.75;;
22363;SDS011;11349;53.412;-1.328;2022-10-15T04:18:12;10.00;;;5.70;;
22363;SDS011;11349;53.412;-1.328;2022-10-15T04:20:38;7.15;;;4.72;;
22363;SDS011;11349;53.412;-1.328;2022-10-15T04:23:06;8.35;;;4.95;;
22363;SDS011;11349;53.412;-1.328;2022-10-15T04:25:32;8.65;;;4.25;;
22363;SDS011;11349;53.412;-1.328;2022-10-15T04:28:00;10.15;;;4.20;;
22363;SDS011;11349;53.412;-1.328;2022-10-15T04:30:26;7.68;;;4.07;;
22363;SDS011;11349;53.412;-1.328;2022-10-15T04:32:52;9.00;;;4.32;;
22363;SDS011;11349;53.412;-1.328;2022-10-15T04:35:17;7.03;;;4.03;;
22363;SDS011;11349;53.412;-1.328;2022-10-15T04:37:43;8.20;;;4.07;;
22363;SDS011;11349;53.412;-1.328;2022-10-15T04:40:09;8.52;;;3.95;;
22363;SDS011;11349;53.412;-1.328;2022-10-15T04:42:37;8.30;;;4.25;;
22363;SDS011;11349;53.412;-1.328;2022-10-15T04:45:04;10.57;;;4.53;;
22363;SDS011;11349;53.412;-1.328;2022-10-15T04:47:30;6.03;;;3.30;;
22363;SDS011;11349;53.412;-1.328;2022-10-15T04:49:56;6.45;;;3.67;;
22363;SDS011;11349;53.412;-1.328;2022-10-15T04:52:22;8.88;;;3.72;;
22363;SDS011;11349;53.412;-1.328;2022-10-15T04:54:47;7.80;;;3.65;;
22363;SDS011;11349;53.412;-1.328;2022-10-15T04:57:13;6.95;;;3.47;;
22363;SDS011;11349;53.412;-1.328;2022-10-15T04:59:39;4.72;;;2.85;;
22363;SDS011;11349;53.412;-1.328;2022-10-15T05:02:06;7.15;;;3.20;;
22363;SDS011;11349;53.412;-1.328;2022-10-15T05:04:32;4.88;;;2.85;;
22363;SDS011;11349;53.412;-1.328;2022-10-15T05:06:58;4.10;;;2.50;;
22363;SDS011;11349;53.412;-1.328;2022-10-15T05:09:23;5.43;;;3.00;;
22363;SDS011;11349;53.412;-1.328;2022-10-15T05:11:49;5.15;;;3.00;;
22363;SDS011;11349;53.412;-1.328;2022-10-15T05:14:15;4.90;;;2.47;;
22363;SDS011;11349;53.412;-1.328;2022-10-15T05:16:40;5.18;;;2.70;;
22363;SDS011;11349;53.412;-1.328;2022-10-15T05:19:06;3.63;;;2.40;;
22363;SDS011;11349;53.412;-1.328;2022-10-15T05:21:33;3.63;;;2.45;;
22363;SDS011;11349;53.412;-1.328;2022-10-15T05:23:59;2.70;;;1.70;;
22363;SDS011;11349;53.412;-1.328;2022-10-15T05:26:26;3.70;;;2.47;;
22363;SDS011;11349;53.412;-1.328;2022-10-15T05:28:54;5.18;;;2.63;;
22363;SDS011;11349;53.412;-1.328;2022-10-15T05:31:22;3.63;;;2.00;;
22363;SDS011;11349;53.412;-1.328;2022-10-15T05:33:50;4.78;;;2.05;;
22363;SDS011;11349;53.412;-1.328;2022-10-15T05:36:18;4.35;;;2.42;;
22363;SDS011;11349;53.412;-1.328;2022-10-15T05:38:52;4.70;;;2.40;;
22363;SDS011;11349;53.412;-1.328;2022-10-15T05:41:18;3.60;;;1.55;;
22363;SDS011;11349;53.412;-1.328;2022-10-15T05:43:48;3.20;;;1.98;;
22363;SDS011;11349;53.412;-1.328;2022-10-15T05:46:15;3.15;;;2.10;;
22363;SDS011;11349;53.412;-1.328;2022-10-15T05:48:42;3.42;;;1.98;;
22363;SDS011;11349;53.412;-1.328;2022-10-15T05:51:11;4.32;;;2.33;;
22363;SDS011;11349;53.412;-1.328;2022-10-15T05:53:37;5.28;;;2.33;;
22363;SDS011;11349;53.412;-1.328;2022-10-15T05:56:04;5.57;;;2.25;;
22363;SDS011;11349;53.412;-1.328;2022-10-15T05:58:31;4.90;;;2.00;;
22363;SDS011;11349;53.412;-1.328;2022-10-15T06:00:58;2.78;;;1.60;;
22363;SDS011;11349;53.412;-1.328;2022-10-15T06:03:26;3.17;;;1.90;;
22363;SDS011;11349;53.412;-1.328;2022-10-15T06:05:53;3.88;;;1.65;;
22363;SDS011;11349;53.412;-1.328;2022-10-15T06:08:19;8.15;;;2.13;;
22363;SDS011;11349;53.412;-1.328;2022-10-15T06:10:45;2.45;;;1.48;;
22363;SDS011;11349;53.412;-1.328;2022-10-15T06:13:11;3.00;;;1.80;;
22363;SDS011;11349;53.412;-1.328;2022-10-15T06:15:41;4.18;;;2.40;;
22363;SDS011;11349;53.412;-1.328;2022-10-15T06:18:11;3.80;;;2.00;;
22363;SDS011;11349;53.412;-1.328;2022-10-15T06:20:40;3.22;;;1.70;;
22363;SDS011;11349;53.412;-1.328;2022-10-15T06:23:08;3.75;;;1.73;;
22363;SDS011;11349;53.412;-1.328;2022-10-15T06:25:34;2.97;;;1.60;;
22363;SDS011;11349;53.412;-1.328;2022-10-15T06:28:03;2.50;;;1.60;;
22363;SDS011;11349;53.412;-1.328;2022-10-15T06:30:30;2.60;;;1.50;;
22363;SDS011;11349;53.412;-1.328;2022-10-15T06:32:56;5.03;;;2.00;;
22363;SDS011;11349;53.412;-1.328;2022-10-15T06:35:22;2.53;;;1.33;;
22363;SDS011;11349;53.412;-1.328;2022-10-15T06:37:49;2.10;;;1.27;;
22363;SDS011;11349;53.412;-1.328;2022-10-15T06:40:15;2.65;;;1.30;;
22363;SDS011;11349;53.412;-1.328;2022-10-15T06:42:41;3.05;;;1.23;;
22363;SDS011;11349;53.412;-1.328;2022-10-15T06:45:07;6.95;;;1.50;;
22363;SDS011;11349;53.412;-1.328;2022-10-15T06:47:37;6.53;;;1.48;;
22363;SDS011;11349;53.412;-1.328;2022-10-15T06:50:04;3.03;;;1.52;;
22363;SDS011;11349;53.412;-1.328;2022-10-15T06:52:32;3.67;;;1.25;;
22363;SDS011;11349;53.412;-1.328;2022-10-15T06:54:58;3.38;;;1.15;;
22363;SDS011;11349;53.412;-1.328;2022-10-15T06:57:25;3.17;;;0.98;;
22363;SDS011;11349;53.412;-1.328;2022-10-15T06:59:52;3.35;;;1.13;;
22363;SDS011;11349;53.412;-1.328;2022-10-15T07:02:18;2.20;;;0.90;;
22363;SDS011;11349;53.412;-1.328;2022-10-15T07:04:46;3.35;;;0.90;;
22363;SDS011;11349;53.412;-1.328;2022-10-15T07:07:13;2.15;;;0.73;;
22363;SDS011;11349;53.412;-1.328;2022-10-15T07:09:38;2.22;;;0.80;;
22363;SDS011;11349;53.412;-1.328;2022-10-15T07:12:04;2.78;;;0.70;;
22363;SDS011;11349;53.412;-1.328;2022-10-15T07:14:31;3.35;;;0.65;;
22363;SDS011;11349;53.412;-1.328;2022-10-15T07:16:57;2.30;;;0.82;;
22363;SDS011;11349;53.412;-1.328;2022-10-15T07:19:23;2.20;;;0.80;;
22363;SDS011;11349;53.412;-1.328;2022-10-15T07:21:49;2.05;;;0.60;;
22363;SDS011;11349;53.412;-1.328;2022-10-15T07:24:15;1.67;;;0.50;;
22363;SDS011;11349;53.412;-1.328;2022-10-15T07:26:41;2.28;;;0.70;;
22363;SDS011;11349;53.412;-1.328;2022-10-15T07:29:07;3.75;;;0.93;;
22363;SDS011;11349;53.412;-1.328;2022-10-15T07:31:33;2.33;;;0.70;;
22363;SDS011;11349;53.412;-1.328;2022-10-15T07:33:59;4.07;;;1.00;;
22363;SDS011;11349;53.412;-1.328;2022-10-15T07:36:25;3.13;;;0.70;;
22363;SDS011;11349;53.412;-1.328;2022-10-15T07:38:50;2.08;;;0.60;;
22363;SDS011;11349;53.412;-1.328;2022-10-15T07:41:16;3.65;;;1.00;;
22363;SDS011;11349;53.412;-1.328;2022-10-15T07:43:42;2.25;;;0.40;;
22363;SDS011;11349;53.412;-1.328;2022-10-15T07:46:08;2.90;;;0.70;;
22363;SDS011;11349;53.412;-1.328;2022-10-15T07:48:34;3.08;;;0.60;;
22363;SDS011;11349;53.412;-1.328;2022-10-15T07:51:01;2.33;;;0.40;;
22363;SDS011;11349;53.412;-1.328;2022-10-15T07:53:39;2.05;;;0.77;;
22363;SDS011;11349;53.412;-1.328;2022-10-15T07:56:06;2.80;;;0.60;;
22363;SDS011;11349;53.412;-1.328;2022-10-15T07:58:34;2.58;;;0.82;;
22363;SDS011;11349;53.412;-1.328;2022-10-15T08:01:02;3.80;;;0.65;;
22363;SDS011;11349;53.412;-1.328;2022-10-15T08:03:29;4.72;;;0.73;;
22363;SDS011;11349;53.412;-1.328;2022-10-15T08:05:55;3.38;;;0.82;;
22363;SDS011;11349;53.412;-1.328;2022-10-15T08:08:24;2.95;;;0.57;;
22363;SDS011;11349;53.412;-1.328;2022-10-15T08:10:49;2.47;;;0.73;;
22363;SDS011;11349;53.412;-1.328;2022-10-15T08:13:15;4.00;;;0.95;;
22363;SDS011;11349;53.412;-1.328;2022-10-15T08:15:41;2.88;;;0.90;;
22363;SDS011;11349;53.412;-1.328;2022-10-15T08:18:07;3.60;;;1.33;;
22363;SDS011;11349;53.412;-1.328;2022-10-15T08:20:34;6.38;;;1.02;;
22363;SDS011;11349;53.412;-1.328;2022-10-15T08:23:04;3.28;;;1.00;;
22363;SDS011;11349;53.412;-1.328;2022-10-15T08:25:30;2.78;;;1.00;;
22363;SDS011;11349;53.412;-1.328;2022-10-15T08:27:57;3.08;;;0.95;;
22363;SDS011;11349;53.412;-1.328;2022-10-15T08:30:23;5.30;;;1.33;;
22363;SDS011;11349;53.412;-1.328;2022-10-15T08:32:49;2.15;;;0.80;;
22363;SDS011;11349;53.412;-1.328;2022-10-15T08:35:15;3.67;;;1.20;;
22363;SDS011;11349;53.412;-1.328;2022-10-15T08:37:41;3.38;;;1.13;;
22363;SDS011;11349;53.412;-1.328;2022-10-15T08:40:06;5.68;;;1.38;;
22363;SDS011;11349;53.412;-1.328;2022-10-15T08:42:35;5.13;;;1.15;;
22363;SDS011;11349;53.412;-1.328;2022-10-15T08:45:05;4.25;;;1.13;;
22363;SDS011;11349;53.412;-1.328;2022-10-15T08:47:39;4.65;;;0.90;;
22363;SDS011;11349;53.412;-1.328;2022-10-15T08:50:12;2.15;;;0.60;;
22363;SDS011;11349;53.412;-1.328;2022-10-15T08:52:50;7.60;;;1.75;;
22363;SDS011;11349;53.412;-1.328;2022-10-15T08:55:18;3.88;;;1.00;;
22363;SDS011;11349;53.412;-1.328;2022-10-15T09:00:51;3.90;;;1.17;;
22363;SDS011;11349;53.412;-1.328;2022-10-15T09:03:25;3.05;;;1.00;;
22363;SDS011;11349;53.412;-1.328;2022-10-15T09:14:40;3.78;;;0.88;;
22363;SDS011;11349;53.412;-1.328;2022-10-15T09:17:19;2.72;;;0.70;;
22363;SDS011;11349;53.412;-1.328;2022-10-15T09:19:48;4.28;;;0.82;;
22363;SDS011;11349;53.412;-1.328;2022-10-15T09:22:23;3.83;;;0.60;;
22363;SDS011;11349;53.412;-1.328;2022-10-15T09:24:52;2.92;;;0.80;;
22363;SDS011;11349;53.412;-1.328;2022-10-15T09:27:31;1.83;;;0.60;;
22363;SDS011;11349;53.412;-1.328;2022-10-15T09:30:11;2.35;;;0.57;;
22363;SDS011;11349;53.412;-1.328;2022-10-15T09:36:08;3.58;;;0.80;;
22363;SDS011;11349;53.412;-1.328;2022-10-15T09:44:32;3.78;;;0.80;;
22363;SDS011;11349;53.412;-1.328;2022-10-15T09:47:01;4.28;;;1.02;;
22363;SDS011;11349;53.412;-1.328;2022-10-15T09:49:46;5.32;;;0.90;;
22363;SDS011;11349;53.412;-1.328;2022-10-15T09:52:38;5.07;;;1.95;;
22363;SDS011;11349;53.412;-1.328;2022-10-15T09:55:34;4.20;;;0.65;;
22363;SDS011;11349;53.412;-1.328;2022-10-15T09:57:58;4.85;;;1.00;;
22363;SDS011;11349;53.412;-1.328;2022-10-15T10:03:28;5.53;;;0.93;;
22363;SDS011;11349;53.412;-1.328;2022-10-15T10:06:03;3.38;;;0.93;;
22363;SDS011;11349;53.412;-1.328;2022-10-15T10:08:56;4.90;;;1.02;;
22363;SDS011;11349;53.412;-1.328;2022-10-15T10:11:25;4.68;;;0.95;;
22363;SDS011;11349;53.412;-1.328;2022-10-15T10:13:55;5.78;;;0.88;;
22363;SDS011;11349;53.412;-1.328;2022-10-15T10:16:23;4.82;;;0.90;;
22363;SDS011;11349;53.412;-1.328;2022-10-15T10:19:09;6.93;;;1.17;;
22363;SDS011;11349;53.412;-1.328;2022-10-15T10:21:37;9.02;;;1.60;;
22363;SDS011;11349;53.412;-1.328;2022-10-15T10:24:17;6.43;;;0.73;;
22363;SDS011;11349;53.412;-1.328;2022-10-15T10:26:44;4.78;;;1.15;;
22363;SDS011;11349;53.412;-1.328;2022-10-15T10:29:11;5.95;;;1.10;;
22363;SDS011;11349;53.412;-1.328;2022-10-15T10:31:44;6.40;;;1.23;;
22363;SDS011;11349;53.412;-1.328;2022-10-15T10:34:15;3.80;;;0.90;;
22363;SDS011;11349;53.412;-1.328;2022-10-15T10:37:02;4.95;;;0.88;;
22363;SDS011;11349;53.412;-1.328;2022-10-15T10:39:31;8.38;;;1.63;;
22363;SDS011;11349;53.412;-1.328;2022-10-15T10:47:04;8.70;;;1.65;;
22363;SDS011;11349;53.412;-1.328;2022-10-15T10:54:53;5.72;;;1.50;;
22363;SDS011;11349;53.412;-1.328;2022-10-15T11:00:09;8.80;;;1.48;;
22363;SDS011;11349;53.412;-1.328;2022-10-15T11:02:43;9.02;;;1.80;;
22363;SDS011;11349;53.412;-1.328;2022-10-15T11:05:11;3.88;;;0.70;;
22363;SDS011;11349;53.412;-1.328;2022-10-15T11:10:53;4.35;;;0.80;;
22363;SDS011;11349;53.412;-1.328;2022-10-15T11:13:32;2.30;;;0.70;;
22363;SDS011;11349;53.412;-1.328;2022-10-15T11:18:55;3.92;;;0.90;;
22363;SDS011;11349;53.412;-1.328;2022-10-15T11:27:19;4.57;;;1.00;;
22363;SDS011;11349;53.412;-1.328;2022-10-15T11:32:45;3.28;;;0.70;;
22363;SDS011;11349;53.412;-1.328;2022-10-15T11:35:20;5.47;;;1.05;;
22363;SDS011;11349;53.412;-1.328;2022-10-15T11:38:16;4.32;;;0.98;;
22363;SDS011;11349;53.412;-1.328;2022-10-15T11:52:53;3.47;;;0.80;;
22363;SDS011;11349;53.412;-1.328;2022-10-15T11:55:21;6.00;;;0.90;;
22363;SDS011;11349;53.412;-1.328;2022-10-15T11:58:10;6.00;;;1.05;;
22363;SDS011;11349;53.412;-1.328;2022-10-15T12:00:45;6.10;;;1.10;;
22363;SDS011;11349;53.412;-1.328;2022-10-15T12:03:21;8.27;;;0.82;;
22363;SDS011;11349;53.412;-1.328;2022-10-15T12:06:08;9.23;;;1.17;;
22363;SDS011;11349;53.412;-1.328;2022-10-15T12:08:40;8.73;;;1.25;;
22363;SDS011;11349;53.412;-1.328;2022-10-15T12:11:26;4.22;;;0.90;;
22363;SDS011;11349;53.412;-1.328;2022-10-15T12:14:40;6.15;;;0.88;;
22363;SDS011;11349;53.412;-1.328;2022-10-15T12:17:03;6.18;;;1.88;;
22363;SDS011;11349;53.412;-1.328;2022-10-15T12:19:47;6.90;;;1.20;;
22363;SDS011;11349;53.412;-1.328;2022-10-15T12:22:33;3.28;;;0.90;;
22363;SDS011;11349;53.412;-1.328;2022-10-15T12:25:03;5.13;;;1.15;;
22363;SDS011;11349;53.412;-1.328;2022-10-15T12:27:31;3.35;;;0.70;;
22363;SDS011;11349;53.412;-1.328;2022-10-15T12:32:45;4.50;;;1.00;;
22363;SDS011;11349;53.412;-1.328;2022-10-15T12:35:35;4.93;;;0.75;;
22363;SDS011;11349;53.412;-1.328;2022-10-15T12:38:17;5.30;;;1.00;;
22363;SDS011;11349;53.412;-1.328;2022-10-15T12:41:05;3.47;;;0.82;;
22363;SDS011;11349;53.412;-1.328;2022-10-15T12:43:45;3.75;;;0.80;;
22363;SDS011;11349;53.412;-1.328;2022-10-15T12:46:17;4.72;;;0.73;;
22363;SDS011;11349;53.412;-1.328;2022-10-15T12:48:44;3.55;;;0.90;;
22363;SDS011;11349;53.412;-1.328;2022-10-15T12:53:45;7.15;;;1.08;;
22363;SDS011;11349;53.412;-1.328;2022-10-15T13:04:07;4.95;;;0.98;;
22363;SDS011;11349;53.412;-1.328;2022-10-15T13:06:33;6.65;;;1.48;;
22363;SDS011;11349;53.412;-1.328;2022-10-15T13:11:50;6.97;;;0.90;;
22363;SDS011;11349;53.412;-1.328;2022-10-15T13:16:49;4.68;;;0.82;;
22363;SDS011;11349;53.412;-1.328;2022-10-15T13:19:22;4.38;;;0.98;;
22363;SDS011;11349;53.412;-1.328;2022-10-15T13:21:57;4.88;;;0.90;;
22363;SDS011;11349;53.412;-1.328;2022-10-15T13:24:25;5.45;;;1.13;;
22363;SDS011;11349;53.412;-1.328;2022-10-15T13:26:53;5.30;;;0.90;;
22363;SDS011;11349;53.412;-1.328;2022-10-15T13:29:25;6.90;;;1.38;;
22363;SDS011;11349;53.412;-1.328;2022-10-15T13:31:52;5.28;;;0.80;;
22363;SDS011;11349;53.412;-1.328;2022-10-15T13:34:24;7.13;;;1.60;;
22363;SDS011;11349;53.412;-1.328;2022-10-15T13:36:59;5.03;;;1.00;;
22363;SDS011;11349;53.412;-1.328;2022-10-15T13:39:28;3.85;;;1.10;;
22363;SDS011;11349;53.412;-1.328;2022-10-15T13:45:04;5.43;;;0.90;;
22363;SDS011;11349;53.412;-1.328;2022-10-15T13:47:40;7.40;;;1.30;;
22363;SDS011;11349;53.412;-1.328;2022-10-15T13:50:22;5.13;;;1.08;;
22363;SDS011;11349;53.412;-1.328;2022-10-15T13:55:36;6.53;;;0.75;;
22363;SDS011;11349;53.412;-1.328;2022-10-15T14:03:27;3.25;;;0.52;;
22363;SDS011;11349;53.412;-1.328;2022-10-15T14:06:07;2.47;;;0.60;;
22363;SDS011;11349;53.412;-1.328;2022-10-15T14:08:54;1.60;;;0.38;;
22363;SDS011;11349;53.412;-1.328;2022-10-15T14:11:22;1.02;;;0.43;;
22363;SDS011;11349;53.412;-1.328;2022-10-15T14:13:50;3.65;;;0.50;;
22363;SDS011;11349;53.412;-1.328;2022-10-15T14:19:18;2.55;;;0.70;;
22363;SDS011;11349;53.412;-1.328;2022-10-15T14:21:51;3.05;;;0.85;;
22363;SDS011;11349;53.412;-1.328;2022-10-15T14:24:20;2.42;;;0.70;;
22363;SDS011;11349;53.412;-1.328;2022-10-15T14:27:04;3.58;;;0.77;;
22363;SDS011;11349;53.412;-1.328;2022-10-15T14:29:42;3.83;;;0.88;;
22363;SDS011;11349;53.412;-1.328;2022-10-15T14:32:20;4.53;;;1.05;;
22363;SDS011;11349;53.412;-1.328;2022-10-15T14:34:49;4.32;;;1.20;;
22363;SDS011;11349;53.412;-1.328;2022-10-15T14:37:27;2.88;;;1.00;;
22363;SDS011;11349;53.412;-1.328;2022-10-15T14:40:01;3.58;;;0.93;;
22363;SDS011;11349;53.412;-1.328;2022-10-15T14:42:29;4.22;;;1.10;;
22363;SDS011;11349;53.412;-1.328;2022-10-15T14:45:08;4.32;;;0.88;;
22363;SDS011;11349;53.412;-1.328;2022-10-15T14:47:44;5.93;;;1.27;;
22363;SDS011;11349;53.412;-1.328;2022-10-15T14:50:16;5.35;;;1.23;;
22363;SDS011;11349;53.412;-1.328;2022-10-15T14:52:47;7.78;;;1.38;;
22363;SDS011;11349;53.412;-1.328;2022-10-15T14:55:24;7.15;;;1.45;;
22363;SDS011;11349;53.412;-1.328;2022-10-15T14:57:55;5.55;;;1.10;;
22363;SDS011;11349;53.412;-1.328;2022-10-15T15:00:29;5.57;;;0.95;;
22363;SDS011;11349;53.412;-1.328;2022-10-15T15:02:58;5.45;;;1.05;;
22363;SDS011;11349;53.412;-1.328;2022-10-15T15:05:27;6.40;;;2.03;;
22363;SDS011;11349;53.412;-1.328;2022-10-15T15:07:53;4.22;;;1.38;;
22363;SDS011;11349;53.412;-1.328;2022-10-15T15:10:22;6.63;;;1.38;;
22363;SDS011;11349;53.412;-1.328;2022-10-15T15:12:51;6.97;;;1.80;;
22363;SDS011;11349;53.412;-1.328;2022-10-15T15:15:20;6.80;;;1.55;;
22363;SDS011;11349;53.412;-1.328;2022-10-15T15:17:48;6.13;;;1.58;;
22363;SDS011;11349;53.412;-1.328;2022-10-15T15:20:15;4.45;;;1.10;;
22363;SDS011;11349;53.412;-1.328;2022-10-15T15:22:44;6.18;;;1.30;;
22363;SDS011;11349;53.412;-1.328;2022-10-15T15:25:17;7.50;;;1.30;;
22363;SDS011;11349;53.412;-1.328;2022-10-15T15:27:47;7.45;;;1.75;;
22363;SDS011;11349;53.412;-1.328;2022-10-15T15:30:14;4.18;;;1.00;;
22363;SDS011;11349;53.412;-1.328;2022-10-15T15:32:43;6.68;;;1.17;;
22363;SDS011;11349;53.412;-1.328;2022-10-15T15:37:50;4.20;;;1.27;;
22363;SDS011;11349;53.412;-1.328;2022-10-15T15:40:15;4.40;;;1.20;;
22363;SDS011;11349;53.412;-1.328;2022-10-15T15:42:41;7.72;;;1.15;;
22363;SDS011;11349;53.412;-1.328;2022-10-15T15:45:19;5.95;;;1.27;;
22363;SDS011;11349;53.412;-1.328;2022-10-15T15:47:47;4.95;;;1.40;;
22363;SDS011;11349;53.412;-1.328;2022-10-15T15:50:13;6.20;;;1.50;;
22363;SDS011;11349;53.412;-1.328;2022-10-15T15:52:39;8.35;;;1.60;;
22363;SDS011;11349;53.412;-1.328;2022-10-15T15:55:05;8.65;;;1.92;;
22363;SDS011;11349;53.412;-1.328;2022-10-15T15:57:31;4.82;;;1.10;;
22363;SDS011;11349;53.412;-1.328;2022-10-15T15:59:57;8.88;;;1.63;;
22363;SDS011;11349;53.412;-1.328;2022-10-15T16:02:23;8.27;;;1.58;;
22363;SDS011;11349;53.412;-1.328;2022-10-15T16:04:49;9.00;;;1.70;;
22363;SDS011;11349;53.412;-1.328;2022-10-15T16:07:14;10.70;;;1.98;;
22363;SDS011;11349;53.412;-1.328;2022-10-15T16:09:40;9.02;;;1.88;;
22363;SDS011;11349;53.412;-1.328;2022-10-15T16:12:06;9.38;;;3.15;;
22363;SDS011;11349;53.412;-1.328;2022-10-15T16:14:32;8.25;;;1.60;;
22363;SDS011;11349;53.412;-1.328;2022-10-15T16:16:57;8.88;;;1.63;;
22363;SDS011;11349;53.412;-1.328;2022-10-15T16:19:23;8.80;;;2.25;;
22363;SDS011;11349;53.412;-1.328;2022-10-15T16:21:49;7.18;;;2.42;;
22363;SDS011;11349;53.412;-1.328;2022-10-15T16:24:15;8.90;;;2.65;;
22363;SDS011;11349;53.412;-1.328;2022-10-15T16:26:41;9.35;;;3.22;;
22363;SDS011;11349;53.412;-1.328;2022-10-15T16:29:07;8.27;;;2.72;;
22363;SDS011;11349;53.412;-1.328;2022-10-15T16:31:33;5.63;;;1.63;;
22363;SDS011;11349;53.412;-1.328;2022-10-15T16:34:03;5.68;;;1.52;;
22363;SDS011;11349;53.412;-1.328;2022-10-15T16:36:29;7.70;;;1.80;;
22363;SDS011;11349;53.412;-1.328;2022-10-15T16:38:55;6.88;;;1.50;;
22363;SDS011;11349;53.412;-1.328;2022-10-15T16:41:22;9.40;;;1.88;;
22363;SDS011;11349;53.412;-1.328;2022-10-15T16:43:47;9.73;;;1.83;;